Time;durP1;ratioP1;P1;durP2;ratioP2;P2;SDS_P1;SDS_P2;PMS_P1;PMS_P2;Temp;Humidity;BMP_temperature;BMP_pressure;BME280_temperature;BME280_humidity;BME280_pressure;Samples;Min_cycle;Max_cycle;Signal;HPM_P1;HPM_P2
2022/07/03 00:01:46;;;;;;;5.88;3.92;;;;;;;16.23;70.68;101628.97;5070619;28;20035;-76
2022/07/03 00:04:11;;;;;;;5.18;3.50;;;;;;;16.17;70.93;101626.59;5068851;28;20047;-76
2022/07/03 00:06:37;;;;;;;4.30;3.28;;;;;;;16.11;71.42;101618.09;5064413;28;20059;-75
2022/07/03 00:09:04;;;;;;;5.63;3.30;;;;;;;16.07;71.81;101619.94;5061030;28;20471;-74
2022/07/03 00:11:30;;;;;;;5.57;3.72;;;;;;;16.05;71.96;101613.91;5061889;28;20380;-74
2022/07/03 00:13:56;;;;;;;6.32;3.50;;;;;;;16.02;71.42;101628.00;5062605;28;20036;-74
2022/07/03 00:16:21;;;;;;;4.90;3.40;;;;;;;16.01;71.80;101622.81;5077072;28;20035;-74
2022/07/03 00:18:47;;;;;;;4.15;2.88;;;;;;;15.99;71.43;101619.38;5080223;28;20020;-74
2022/07/03 00:21:20;;;;;;;3.25;2.80;;;;;;;15.95;71.58;101618.66;5070091;28;20036;-74
2022/07/03 00:23:54;;;;;;;4.65;2.97;;;;;;;15.92;72.06;101624.84;5070965;28;20020;-74
2022/07/03 00:26:20;;;;;;;5.88;3.13;;;;;;;15.89;71.63;101618.84;5073314;28;20025;-74
2022/07/03 00:28:46;;;;;;;5.13;3.50;;;;;;;15.86;71.01;101614.59;5072968;28;20749;-74
2022/07/03 00:31:13;;;;;;;4.63;3.33;;;;;;;15.82;71.02;101612.94;5068804;28;20032;-73
2022/07/03 00:33:38;;;;;;;5.88;3.38;;;;;;;15.80;71.53;101617.38;5071034;28;20146;-74
2022/07/03 00:36:04;;;;;;;4.78;3.15;;;;;;;15.77;70.87;101620.09;5077189;28;20150;-74
2022/07/03 00:38:30;;;;;;;6.43;3.28;;;;;;;15.74;71.32;101626.31;5081601;28;20421;-74
2022/07/03 00:40:55;;;;;;;5.32;3.10;;;;;;;15.73;71.89;101623.75;5068955;28;20050;-74
2022/07/03 00:43:21;;;;;;;4.40;2.95;;;;;;;15.71;72.50;101628.22;5078311;28;20110;-74
2022/07/03 00:45:50;;;;;;;4.45;3.00;;;;;;;15.68;72.83;101625.69;5080401;28;20030;-74
2022/07/03 00:48:18;;;;;;;4.55;2.80;;;;;;;15.63;72.97;101623.19;5076076;28;20024;-74
2022/07/03 00:50:49;;;;;;;6.03;3.53;;;;;;;15.59;73.70;101627.69;5071829;28;20028;-74
2022/07/03 00:53:26;;;;;;;6.80;3.15;;;;;;;15.60;73.83;101632.03;5069961;28;20024;-74
2022/07/03 00:55:53;;;;;;;5.40;3.08;;;;;;;15.60;73.59;101634.66;5076463;28;20024;-74
2022/07/03 00:58:19;;;;;;;4.55;3.42;;;;;;;15.60;73.25;101641.69;5075389;28;20352;-74
2022/07/03 01:00:47;;;;;;;6.43;4.05;;;;;;;15.60;72.78;101634.66;5073764;28;20020;-74
2022/07/03 01:03:17;;;;;;;5.32;3.88;;;;;;;15.60;72.78;101641.69;5080448;28;20052;-74
2022/07/03 01:05:45;;;;;;;7.32;4.63;;;;;;;15.60;72.98;101645.16;5079199;28;20077;-74
2022/07/03 01:08:16;;;;;;;6.53;5.00;;;;;;;15.62;72.53;101638.09;5076492;28;20107;-74
2022/07/03 01:11:04;;;;;;;6.68;4.88;;;;;;;15.67;71.39;101655.44;5076266;28;20032;-74
2022/07/03 01:13:32;;;;;;;7.70;5.45;;;;;;;15.66;72.58;101645.88;5075591;28;20016;-74
2022/07/03 01:16:06;;;;;;;9.38;5.55;;;;;;;15.66;72.57;101638.00;5082329;28;20117;-74
2022/07/03 01:18:48;;;;;;;9.45;5.80;;;;;;;15.69;71.83;101640.53;5066217;28;20054;-74
2022/07/03 01:21:32;;;;;;;8.85;5.70;;;;;;;15.69;72.09;101632.66;5065158;28;20032;-74
2022/07/03 01:24:34;;;;;;;9.25;5.57;;;;;;;15.72;71.25;101643.00;5068729;28;20075;-74
2022/07/03 01:27:06;;;;;;;8.23;5.80;;;;;;;15.71;71.60;101631.69;5067411;28;20078;-74
2022/07/03 01:29:51;;;;;;;8.45;5.80;;;;;;;15.72;71.62;101643.00;5069761;28;20047;-74
2022/07/03 01:32:18;;;;;;;6.90;5.57;;;;;;;15.73;71.87;101644.72;5071695;28;20381;-74
2022/07/03 01:34:51;;;;;;;7.97;5.72;;;;;;;15.71;71.27;101642.16;5072013;28;20024;-74
2022/07/03 01:37:21;;;;;;;8.57;5.65;;;;;;;15.73;71.26;101647.34;5069115;28;20441;-74
2022/07/03 01:39:51;;;;;;;7.23;5.37;;;;;;;15.73;71.46;101644.72;5068311;28;20024;-74
2022/07/03 01:42:19;;;;;;;6.47;5.32;;;;;;;15.72;71.23;101646.50;5065545;28;20095;-74
2022/07/03 01:44:47;;;;;;;6.63;4.90;;;;;;;15.72;71.31;101646.50;5074373;28;20027;-74
2022/07/03 01:47:14;;;;;;;6.13;4.93;;;;;;;15.72;71.37;101643.00;5073687;28;20043;-74
2022/07/03 01:49:41;;;;;;;6.93;5.10;;;;;;;15.73;71.37;101649.97;5068129;28;20039;-74
2022/07/03 01:52:08;;;;;;;6.30;4.97;;;;;;;15.74;71.33;101646.44;5063892;28;20017;-74
2022/07/03 01:54:36;;;;;;;5.40;4.75;;;;;;;15.71;71.33;101641.31;5070207;28;20036;-74
2022/07/03 01:57:05;;;;;;;8.80;4.80;;;;;;;15.71;71.41;101644.78;5069033;28;20024;-74
2022/07/03 01:59:30;;;;;;;5.97;4.93;;;;;;;15.70;71.55;101647.47;5067687;28;20090;-74
2022/07/03 02:02:13;;;;;;;7.38;4.90;;;;;;;15.70;71.16;101643.06;5062389;28;20036;-74
2022/07/03 02:04:42;;;;;;;7.78;4.63;;;;;;;15.69;71.54;101638.75;5072235;28;20027;-74
2022/07/03 02:07:29;;;;;;;5.97;4.45;;;;;;;15.70;70.75;101639.63;5075813;28;20028;-74
2022/07/03 02:10:16;;;;;;;7.78;4.65;;;;;;;15.67;70.78;101635.31;5067983;28;20708;-74
2022/07/03 02:12:52;;;;;;;7.63;4.70;;;;;;;15.64;71.26;101630.16;5066235;28;20024;-74
2022/07/03 02:15:33;;;;;;;6.10;4.50;;;;;;;15.63;71.76;101633.69;5064363;28;20048;-74
2022/07/03 02:18:15;;;;;;;6.35;4.60;;;;;;;15.64;71.39;101638.03;5066075;28;20094;-74
2022/07/03 02:20:46;;;;;;;6.72;4.50;;;;;;;15.61;71.21;101636.38;5066251;28;20115;-74
2022/07/03 02:23:13;;;;;;;5.95;4.70;;;;;;;15.59;71.70;101627.69;5066742;28;20036;-74
2022/07/03 02:25:41;;;;;;;5.85;4.93;;;;;;;15.58;71.67;101630.41;5065317;28;20071;-74
2022/07/03 02:28:20;;;;;;;6.80;5.10;;;;;;;15.56;71.62;101633.03;5067525;28;20024;-74
2022/07/03 02:30:50;;;;;;;7.25;4.65;;;;;;;15.54;72.04;101634.84;5068573;28;20033;-74
2022/07/03 02:33:21;;;;;;;6.38;4.72;;;;;;;15.50;72.06;101627.16;5075831;28;20423;-74
2022/07/03 02:35:48;;;;;;;7.15;5.18;;;;;;;15.48;72.37;101633.31;5068569;28;20423;-74
2022/07/03 02:38:19;;;;;;;8.55;5.00;;;;;;;15.47;72.24;101625.50;5071407;28;20436;-74
2022/07/03 02:41:09;;;;;;;6.47;5.07;;;;;;;15.46;71.22;101626.41;5070286;28;20028;-74
2022/07/03 02:43:49;;;;;;;11.43;5.45;;;;;;;15.41;72.82;101628.31;5070913;28;20078;-74
2022/07/03 02:49:29;;;;;;;6.85;4.95;;;;;;;15.32;72.19;101629.47;5069979;28;20043;-74
2022/07/03 02:52:14;;;;;;;10.57;5.55;;;;;;;15.29;71.99;101624.34;5069269;28;20107;-74
2022/07/03 02:54:45;;;;;;;10.50;5.72;;;;;;;15.22;73.22;101634.16;5071542;28;20125;-74
2022/07/03 02:57:10;;;;;;;6.60;5.50;;;;;;;15.19;73.05;101626.44;5071703;28;20024;-74
2022/07/03 02:59:35;;;;;;;6.85;5.10;;;;;;;15.12;73.42;101633.59;5070139;28;20029;-74
2022/07/03 03:02:14;;;;;;;5.55;4.85;;;;;;;15.09;73.15;101638.09;5070748;28;20059;-74
2022/07/03 03:04:46;;;;;;;8.10;5.20;;;;;;;15.01;73.98;101636.59;5068823;28;20029;-73
2022/07/03 03:07:16;;;;;;;7.75;5.70;;;;;;;14.97;74.10;101634.97;5072390;28;20025;-75
2022/07/03 03:09:44;;;;;;;8.07;5.38;;;;;;;14.93;74.21;101629.88;5071164;28;20016;-74
2022/07/03 03:12:11;;;;;;;6.57;5.43;;;;;;;14.87;74.33;101636.16;5068581;28;20032;-74
2022/07/03 03:14:40;;;;;;;10.50;5.68;;;;;;;14.82;74.51;101635.47;5070248;28;20027;-74
2022/07/03 03:17:07;;;;;;;7.88;5.38;;;;;;;14.81;74.18;101628.50;5072237;28;20074;-74
2022/07/03 03:19:45;;;;;;;6.28;5.30;;;;;;;14.80;73.62;101629.41;5067643;28;20178;-74
2022/07/03 03:22:49;;;;;;;7.07;5.57;;;;;;;14.77;72.86;101632.09;5069991;28;20495;-74
2022/07/03 03:25:15;;;;;;;6.50;5.00;;;;;;;14.70;74.14;101640.16;5066612;28;20040;-74
2022/07/03 03:27:40;;;;;;;5.65;5.05;;;;;;;14.67;73.99;101632.38;5068012;28;20033;-74
2022/07/03 03:30:06;;;;;;;6.80;5.32;;;;;;;14.65;74.06;101639.41;5071191;28;20033;-74
2022/07/03 03:32:35;;;;;;;6.57;5.43;;;;;;;14.61;74.06;101643.03;5071264;28;20024;-74
2022/07/03 03:35:01;;;;;;;7.60;5.88;;;;;;;14.58;74.32;101648.34;5071703;28;20120;-74
2022/07/03 03:37:27;;;;;;;7.85;5.45;;;;;;;14.55;74.82;101653.66;5070739;28;20047;-74
2022/07/03 03:39:52;;;;;;;10.45;5.57;;;;;;;14.53;75.20;101645.00;5068634;28;20620;-73
2022/07/03 03:42:17;;;;;;;8.13;5.20;;;;;;;14.50;75.16;101645.13;5071468;28;20055;-74
2022/07/03 03:44:42;;;;;;;7.18;5.13;;;;;;;14.51;75.69;101650.28;5068262;28;20028;-74
2022/07/03 03:47:09;;;;;;;6.95;5.25;;;;;;;14.53;74.67;101656.34;5069804;28;20032;-74
2022/07/03 03:49:34;;;;;;;6.68;4.93;;;;;;;14.55;74.62;101646.69;5071504;28;20380;-74
2022/07/03 03:52:00;;;;;;;10.20;5.05;;;;;;;14.55;74.75;101648.44;5069028;28;20050;-74
2022/07/03 03:54:25;;;;;;;5.47;4.72;;;;;;;14.54;75.37;101649.34;5069627;28;20029;-74
2022/07/03 03:56:50;;;;;;;9.85;5.10;;;;;;;14.52;75.58;101653.75;5069827;28;20032;-74
2022/07/03 03:59:16;;;;;;;9.57;5.60;;;;;;;14.54;75.67;101657.19;5071894;28;20428;-74
2022/07/03 04:01:41;;;;;;;7.57;5.28;;;;;;;14.56;75.64;101663.25;5069174;28;20035;-74
2022/07/03 04:04:06;;;;;;;7.57;4.80;;;;;;;14.57;75.30;101662.34;5072115;28;20024;-74
2022/07/03 04:06:31;;;;;;;6.80;4.57;;;;;;;14.60;75.72;101646.53;5070171;28;20025;-74
2022/07/03 04:08:57;;;;;;;7.18;4.50;;;;;;;14.63;75.44;101650.81;5069359;28;20039;-74
2022/07/03 04:11:22;;;;;;;6.47;4.70;;;;;;;14.65;75.08;101654.25;5071519;28;20025;-74
2022/07/03 04:13:47;;;;;;;7.45;4.43;;;;;;;14.69;75.03;101651.53;5069099;28;20544;-74
2022/07/03 04:16:12;;;;;;;5.97;4.47;;;;;;;14.71;75.52;101647.09;5066780;28;20021;-74
2022/07/03 04:18:38;;;;;;;6.13;4.57;;;;;;;14.75;75.83;101650.50;5068407;28;21117;-74
2022/07/03 04:21:04;;;;;;;6.43;4.43;;;;;;;14.76;75.78;101646.13;5067392;28;20020;-74
2022/07/03 04:23:30;;;;;;;6.25;4.85;;;;;;;14.78;75.78;101644.31;5071878;28;20028;-74
2022/07/03 04:25:55;;;;;;;7.18;4.75;;;;;;;14.80;75.74;101647.75;5067160;28;20375;-74
2022/07/03 04:28:20;;;;;;;7.30;4.93;;;;;;;14.81;75.77;101650.31;5069133;28;20016;-74
2022/07/03 04:30:46;;;;;;;8.23;4.75;;;;;;;14.85;75.75;101658.94;5069896;28;20021;-74
2022/07/03 04:33:11;;;;;;;5.75;4.53;;;;;;;14.85;75.41;101653.72;5071495;28;20025;-74
2022/07/03 04:35:38;;;;;;;8.60;4.55;;;;;;;14.87;75.37;101654.50;5064211;28;20055;-74
2022/07/03 04:38:03;;;;;;;8.55;4.60;;;;;;;14.89;74.69;101657.91;5069308;28;20115;-74
2022/07/03 04:40:28;;;;;;;8.43;4.47;;;;;;;14.90;74.28;101664.88;5068772;28;20100;-74
2022/07/03 04:42:54;;;;;;;5.72;4.28;;;;;;;14.93;74.32;101662.16;5071339;28;20077;-74
2022/07/03 04:45:19;;;;;;;6.80;4.35;;;;;;;14.98;74.14;101662.91;5064762;28;20040;-74
2022/07/03 04:47:44;;;;;;;9.90;4.85;;;;;;;15.05;74.04;101668.78;5070445;28;20395;-74
2022/07/03 04:50:10;;;;;;;9.00;4.32;;;;;;;15.11;73.85;101672.97;5069433;28;20047;-73
2022/07/03 04:52:35;;;;;;;5.68;4.30;;;;;;;15.20;74.07;101671.84;5069632;28;20142;-74
2022/07/03 04:55:01;;;;;;;7.00;4.72;;;;;;;15.27;73.68;101663.72;5063878;28;20023;-74
2022/07/03 04:57:28;;;;;;;8.02;5.22;;;;;;;15.35;73.54;101657.38;5069156;28;20035;-74
2022/07/03 04:59:53;;;;;;;7.53;5.70;;;;;;;15.42;73.14;101661.50;5067332;28;20115;-75
2022/07/03 05:02:18;;;;;;;7.25;5.50;;;;;;;15.48;72.64;101674.44;5066603;28;20104;-74
2022/07/03 05:04:44;;;;;;;7.95;5.63;;;;;;;15.56;72.88;101664.53;5069033;28;20036;-73
2022/07/03 05:07:09;;;;;;;8.40;5.60;;;;;;;15.61;72.81;101667.84;5067951;28;20021;-74
2022/07/03 05:09:34;;;;;;;7.70;5.47;;;;;;;15.66;72.28;101670.31;5070723;28;20046;-74
2022/07/03 05:12:00;;;;;;;7.60;5.22;;;;;;;15.70;71.99;101665.84;5065809;28;20028;-74
2022/07/03 05:14:25;;;;;;;7.53;5.18;;;;;;;15.71;71.86;101665.78;5067835;28;20020;-74
2022/07/03 05:16:50;;;;;;;9.45;4.93;;;;;;;15.70;70.94;101664.06;5067547;28;20131;-74
2022/07/03 05:19:15;;;;;;;6.85;4.70;;;;;;;15.73;71.66;101670.97;5065434;28;20055;-74
2022/07/03 05:21:41;;;;;;;6.88;4.80;;;;;;;15.77;71.16;101667.31;5066575;28;20551;-74
2022/07/03 05:24:06;;;;;;;6.10;4.65;;;;;;;15.80;71.32;101676.88;5067782;28;20047;-74
2022/07/03 05:26:32;;;;;;;8.85;4.93;;;;;;;15.81;71.42;101666.31;5067720;28;20031;-74
2022/07/03 05:28:57;;;;;;;8.35;4.25;;;;;;;15.86;71.83;101676.69;5067453;28;20396;-74
2022/07/03 05:31:22;;;;;;;8.40;4.25;;;;;;;15.93;71.95;101678.19;5067504;28;20058;-74
2022/07/03 05:33:47;;;;;;;8.75;4.75;;;;;;;16.01;72.02;101681.41;5066668;28;20024;-74
2022/07/03 05:36:13;;;;;;;8.15;3.80;;;;;;;16.07;70.59;101675.06;5069474;28;20025;-74
2022/07/03 05:41:22;;;;;;;7.22;3.95;;;;;;;16.08;71.14;101682.91;5064292;28;20114;-74
2022/07/03 05:43:47;;;;;;;6.15;4.47;;;;;;;16.08;70.54;101682.03;5066230;28;20507;-74
2022/07/03 05:46:12;;;;;;;7.65;4.40;;;;;;;16.04;70.78;101680.44;5065034;28;20021;-74
2022/07/03 05:48:38;;;;;;;5.40;3.80;;;;;;;16.04;70.98;101685.69;5065451;28;20108;-74
2022/07/03 05:51:03;;;;;;;5.85;3.40;;;;;;;16.02;70.34;101687.50;5067089;28;20460;-74
2022/07/03 05:53:29;;;;;;;6.53;3.47;;;;;;;16.03;70.89;101689.22;5068483;28;20035;-74
2022/07/03 05:55:55;;;;;;;5.95;3.75;;;;;;;16.01;70.91;101685.81;5068377;28;20043;-73
2022/07/03 05:58:20;;;;;;;5.72;3.25;;;;;;;16.03;70.82;101690.06;5065544;28;20032;-74
2022/07/03 06:00:45;;;;;;;5.95;3.60;;;;;;;16.07;70.99;101696.94;5065797;28;20056;-74
2022/07/03 06:03:11;;;;;;;5.72;3.28;;;;;;;16.12;70.33;101695.94;5065049;28;20029;-74
2022/07/03 06:05:36;;;;;;;5.35;3.67;;;;;;;16.15;72.04;101694.03;5069320;28;20044;-74
2022/07/03 06:08:02;;;;;;;6.97;3.95;;;;;;;16.22;71.96;101692.91;5069210;28;20478;-74
2022/07/03 06:10:28;;;;;;;5.68;3.60;;;;;;;16.29;71.61;101690.06;5071645;28;20031;-74
2022/07/03 06:12:54;;;;;;;6.00;3.42;;;;;;;16.34;71.64;101706.50;5071653;28;20021;-74
2022/07/03 06:15:19;;;;;;;4.53;3.28;;;;;;;16.38;70.93;101697.63;5072259;28;20529;-74
2022/07/03 06:17:44;;;;;;;6.18;2.80;;;;;;;16.40;70.09;101701.00;5069343;28;20056;-74
2022/07/03 06:20:10;;;;;;;6.00;3.00;;;;;;;16.42;70.91;101698.34;5070788;28;20434;-74
2022/07/03 06:22:36;;;;;;;7.38;3.00;;;;;;;16.47;70.78;101697.25;5071236;28;20032;-74
2022/07/03 06:25:02;;;;;;;6.63;2.70;;;;;;;16.51;70.50;101696.25;5068946;28;20198;-74
2022/07/03 06:27:28;;;;;;;6.72;2.90;;;;;;;16.57;70.58;101702.19;5071876;28;20036;-74
2022/07/03 06:29:53;;;;;;;4.18;2.58;;;;;;;16.59;70.21;101708.22;5071862;28;20031;-73
2022/07/03 06:32:18;;;;;;;6.05;2.65;;;;;;;16.60;69.83;101704.69;5069927;28;20017;-74
2022/07/03 06:34:44;;;;;;;4.00;2.40;;;;;;;16.60;71.27;101707.31;5070667;28;20375;-74
2022/07/03 06:37:09;;;;;;;4.82;2.60;;;;;;;16.64;71.31;101706.28;5071287;28;20379;-74
2022/07/03 06:39:35;;;;;;;7.50;3.13;;;;;;;16.71;70.46;101713.03;5069436;28;20094;-74
2022/07/03 06:42:00;;;;;;;5.03;2.42;;;;;;;16.75;71.30;101704.09;5071539;28;20098;-74
2022/07/03 06:44:26;;;;;;;6.82;2.55;;;;;;;16.81;70.13;101713.53;5069770;28;20063;-74
2022/07/03 06:46:51;;;;;;;7.00;2.80;;;;;;;16.86;70.56;101710.75;5071432;28;20020;-74
2022/07/03 06:49:16;;;;;;;5.22;2.80;;;;;;;16.92;70.74;101702.59;5066570;28;20033;-73
2022/07/03 06:51:42;;;;;;;7.50;3.08;;;;;;;16.96;70.42;101706.84;5070564;28;20153;-74
2022/07/03 06:54:07;;;;;;;4.28;2.75;;;;;;;16.95;70.26;101708.66;5071613;28;20471;-74
2022/07/03 06:56:32;;;;;;;6.30;3.03;;;;;;;16.96;71.23;101702.47;5069492;28;20021;-74
2022/07/03 06:58:58;;;;;;;4.88;2.70;;;;;;;17.02;70.71;101711.88;5065742;28;20043;-74
2022/07/03 07:01:23;;;;;;;5.28;2.58;;;;;;;17.04;70.34;101699.53;5069233;28;20032;-74
2022/07/03 07:03:48;;;;;;;4.38;2.88;;;;;;;17.10;70.68;101708.97;5071385;28;20024;-74
2022/07/03 07:06:13;;;;;;;4.90;2.90;;;;;;;17.14;70.28;101707.94;5070439;28;20104;-74
2022/07/03 07:08:39;;;;;;;5.93;2.80;;;;;;;17.18;70.35;101706.03;5069076;28;20154;-74
2022/07/03 07:11:04;;;;;;;3.60;2.45;;;;;;;17.21;70.04;101711.16;5069100;28;20055;-74
2022/07/03 07:13:29;;;;;;;4.40;2.33;;;;;;;17.22;69.81;101712.88;5068614;28;20110;-74
2022/07/03 07:15:54;;;;;;;7.45;2.60;;;;;;;17.22;70.17;101710.25;5070169;28;20052;-74
2022/07/03 07:18:20;;;;;;;5.40;2.30;;;;;;;17.26;69.48;101710.06;5070798;28;20021;-74
2022/07/03 07:20:45;;;;;;;4.95;2.38;;;;;;;17.30;71.04;101708.16;5069209;28;20511;-74
2022/07/03 07:23:10;;;;;;;5.20;2.40;;;;;;;17.34;70.29;101712.38;5063251;28;20029;-74
2022/07/03 07:25:36;;;;;;;5.70;2.83;;;;;;;17.37;69.83;101707.00;5071352;28;20385;-74
2022/07/03 07:28:02;;;;;;;5.05;2.50;;;;;;;17.44;70.31;101718.97;5070586;28;20070;-74
2022/07/03 07:30:27;;;;;;;6.15;2.80;;;;;;;17.47;68.62;101711.88;5069567;28;20472;-74
2022/07/03 07:32:52;;;;;;;6.28;2.10;;;;;;;17.52;69.61;101707.28;5069375;28;20081;-74
2022/07/03 07:35:18;;;;;;;3.30;2.00;;;;;;;17.57;68.94;101719.31;5066602;28;20024;-74
2022/07/03 07:37:44;;;;;;;4.75;2.38;;;;;;;17.59;68.06;101721.91;5064737;28;20024;-73
2022/07/03 07:40:09;;;;;;;5.35;2.25;;;;;;;17.62;68.25;101721.75;5070159;28;20032;-74
2022/07/03 07:42:35;;;;;;;3.17;2.00;;;;;;;17.63;68.35;101728.75;5069122;28;20028;-74
2022/07/03 07:45:00;;;;;;;3.55;1.90;;;;;;;17.65;67.26;101728.69;5070201;28;20521;-74
2022/07/03 07:47:25;;;;;;;10.75;2.60;;;;;;;17.69;68.52;101732.88;5065035;28;20038;-74
2022/07/03 07:49:50;;;;;;;4.15;2.38;;;;;;;17.72;67.26;101728.38;5070017;28;20024;-74
2022/07/03 07:52:16;;;;;;;5.50;2.50;;;;;;;17.77;67.52;101724.66;5068276;28;20028;-74
2022/07/03 07:54:41;;;;;;;4.85;2.28;;;;;;;17.81;66.23;101726.25;5072501;28;20475;-74
2022/07/03 07:57:06;;;;;;;5.85;2.40;;;;;;;17.86;65.70;101725.13;5068498;28;20029;-74
2022/07/03 07:59:31;;;;;;;8.30;2.42;;;;;;;17.90;65.96;101731.16;5070403;28;20479;-74
2022/07/03 08:07:25;;;;;;;4.07;2.00;;;;;;;18.04;66.85;101717.41;5070595;28;20507;-74
2022/07/03 08:09:53;;;;;;;3.63;2.30;;;;;;;18.09;67.28;101725.97;5068494;28;20020;-74
2022/07/03 08:12:18;;;;;;;3.83;2.20;;;;;;;18.13;64.73;101731.94;5067016;28;20020;-74
2022/07/03 08:14:43;;;;;;;5.15;2.13;;;;;;;18.16;64.80;101730.06;5072461;28;20051;-74
2022/07/03 08:17:09;;;;;;;5.28;2.47;;;;;;;18.22;65.29;101730.69;5068829;28;20346;-74
2022/07/03 08:19:34;;;;;;;4.15;2.50;;;;;;;18.25;65.15;101735.84;5067009;28;20057;-74
2022/07/03 08:22:01;;;;;;;4.38;2.20;;;;;;;18.30;67.46;101729.44;5064845;28;20024;-74
2022/07/03 08:24:26;;;;;;;4.47;2.15;;;;;;;18.37;66.41;101726.53;5069686;28;20120;-74
2022/07/03 08:26:52;;;;;;;5.50;2.33;;;;;;;18.39;63.75;101727.34;5069748;28;20043;-74
2022/07/03 08:29:18;;;;;;;5.28;2.42;;;;;;;18.44;67.14;101730.63;5065649;28;20029;-74
2022/07/03 08:31:43;;;;;;;3.60;2.20;;;;;;;18.48;64.62;101729.53;5065294;28;20784;-73
2022/07/03 08:34:12;;;;;;;4.53;2.22;;;;;;;18.53;66.01;101729.34;5069554;28;20038;-74
2022/07/03 08:36:40;;;;;;;3.63;2.47;;;;;;;18.56;65.21;101731.81;5064802;28;20027;-74
2022/07/03 08:39:05;;;;;;;5.32;2.80;;;;;;;18.59;64.07;101735.19;5066298;28;20020;-74
2022/07/03 08:41:32;;;;;;;6.47;3.05;;;;;;;18.62;65.00;101732.41;5068846;28;20085;-75
2022/07/03 08:43:59;;;;;;;4.18;2.78;;;;;;;18.66;64.94;101731.34;5065035;28;20106;-74
2022/07/03 08:46:28;;;;;;;5.70;3.10;;;;;;;18.68;64.42;101733.06;5069278;28;20078;-74
2022/07/03 08:48:53;;;;;;;3.65;2.42;;;;;;;18.70;62.01;101732.06;5069539;28;20020;-74
2022/07/03 08:51:20;;;;;;;4.90;2.42;;;;;;;18.74;63.59;101714.34;5069949;28;20077;-74
2022/07/03 08:53:47;;;;;;;3.53;1.85;;;;;;;18.77;64.37;101717.66;5065612;28;20467;-74
2022/07/03 08:56:12;;;;;;;6.35;2.08;;;;;;;18.83;63.08;101727.06;5066612;28;20017;-74
2022/07/03 08:58:38;;;;;;;7.10;2.58;;;;;;;18.87;63.81;101726.00;5069063;28;20033;-74
2022/07/03 09:01:03;;;;;;;7.82;2.47;;;;;;;18.94;63.31;101729.22;5068751;28;20020;-74
2022/07/03 09:03:30;;;;;;;5.45;2.90;;;;;;;18.99;64.42;101726.38;5072672;28;20147;-74
2022/07/03 09:05:56;;;;;;;5.85;2.25;;;;;;;19.00;61.83;101728.97;5065046;28;20017;-74
2022/07/03 09:08:23;;;;;;;5.15;2.20;;;;;;;19.03;62.73;101723.56;5066188;28;20028;-73
2022/07/03 09:10:48;;;;;;;4.53;2.30;;;;;;;19.06;61.87;101726.00;5070537;28;20026;-74
2022/07/03 09:13:14;;;;;;;4.82;2.47;;;;;;;19.11;63.10;101718.75;5068285;28;20032;-74
2022/07/03 09:15:39;;;;;;;4.05;2.20;;;;;;;19.13;61.19;101718.66;5067490;28;20048;-74
2022/07/03 09:18:06;;;;;;;2.75;2.05;;;;;;;19.17;62.70;101725.50;5070107;28;20472;-74
2022/07/03 09:20:37;;;;;;;4.63;2.50;;;;;;;19.22;62.29;101720.88;5067971;28;20404;-74
2022/07/03 09:23:09;;;;;;;;;;;;;;;19.26;62.82;101716.28;5074142;28;20039;-74
2022/07/03 09:25:34;;;;;;;2.88;2.30;;;;;;;19.22;62.81;101712.97;5055851;28;19916;-74
2022/07/03 09:28:00;;;;;;;3.33;2.50;;;;;;;19.29;63.18;101717.94;5063287;28;20036;-74
2022/07/03 09:30:26;;;;;;;4.65;2.33;;;;;;;19.33;62.66;101724.75;5061426;28;20028;-73
2022/07/03 09:32:52;;;;;;;5.30;2.47;;;;;;;19.31;60.22;101726.63;5061830;28;20479;-74
2022/07/03 09:35:25;;;;;;;3.83;2.30;;;;;;;19.23;61.48;101735.78;5060045;28;20029;-74
2022/07/03 09:38:03;;;;;;;4.85;2.45;;;;;;;19.20;61.87;101735.91;5056428;28;20093;-74
2022/07/03 09:40:48;;;;;;;4.35;2.55;;;;;;;19.26;61.74;101729.50;5064558;28;20918;-74
2022/07/03 09:43:13;;;;;;;7.32;2.42;;;;;;;19.36;61.21;101735.19;5061830;28;20047;-74
2022/07/03 09:45:56;;;;;;;4.07;1.90;;;;;;;19.45;61.33;101729.47;5065196;28;20078;-74
2022/07/03 09:48:35;;;;;;;5.95;2.00;;;;;;;19.57;61.02;101733.25;5065595;28;20035;-74
2022/07/03 09:51:20;;;;;;;4.55;1.85;;;;;;;19.72;62.25;101736.94;5064426;28;20040;-74
2022/07/03 09:53:48;;;;;;;3.88;2.00;;;;;;;19.84;60.15;101741.59;5064098;28;20070;-74
2022/07/03 09:56:13;;;;;;;3.33;2.15;;;;;;;19.94;58.88;101741.16;5066969;28;20024;-74
2022/07/03 09:58:39;;;;;;;3.50;2.35;;;;;;;19.96;59.03;101737.50;5064284;28;20487;-74
2022/07/03 10:01:18;;;;;;;5.70;2.20;;;;;;;19.97;59.98;101738.38;5064724;28;20033;-73
2022/07/03 10:03:43;;;;;;;4.57;2.30;;;;;;;19.89;59.45;101743.19;5064851;28;20035;-74
2022/07/03 10:06:09;;;;;;;3.20;2.40;;;;;;;19.83;58.94;101734.59;5068263;28;20025;-75
2022/07/03 10:08:35;;;;;;;2.45;1.98;;;;;;;19.78;59.04;101741.91;5066836;28;20044;-74
2022/07/03 10:11:01;;;;;;;3.33;2.17;;;;;;;19.78;59.79;101739.28;5067961;28;20441;-74
2022/07/03 10:13:26;;;;;;;5.80;2.38;;;;;;;19.82;58.81;101748.72;5065033;28;20024;-74
2022/07/03 10:15:52;;;;;;;3.03;2.30;;;;;;;19.86;57.93;101739.72;5068027;28;20035;-74
2022/07/03 10:18:26;;;;;;;5.03;2.22;;;;;;;19.93;58.91;101750.00;5065031;28;20106;-75
2022/07/03 10:20:59;;;;;;;6.88;2.33;;;;;;;19.99;59.57;101739.13;5065561;28;20048;-74
2022/07/03 10:23:26;;;;;;;3.03;2.15;;;;;;;20.07;58.10;101742.22;5068263;28;20942;-74
2022/07/03 10:25:52;;;;;;;3.75;2.55;;;;;;;20.11;58.55;101753.50;5064477;28;20660;-74
2022/07/03 10:28:18;;;;;;;4.40;2.58;;;;;;;20.14;57.74;101748.91;5067668;28;20613;-74
2022/07/03 10:30:47;;;;;;;4.55;2.60;;;;;;;20.22;57.65;101752.94;5066313;28;20031;-74
2022/07/03 10:33:13;;;;;;;4.03;2.17;;;;;;;20.27;55.55;101756.19;5064808;28;20024;-74
2022/07/03 10:35:42;;;;;;;5.70;2.60;;;;;;;20.29;57.22;101756.97;5063470;28;20025;-74
2022/07/03 10:38:27;;;;;;;6.60;2.80;;;;;;;20.35;58.21;101751.34;5065235;28;20120;-75
2022/07/03 10:46:32;;;;;;;3.58;2.33;;;;;;;20.61;56.25;101759.69;5063018;28;20090;-74
2022/07/03 10:49:05;;;;;;;6.07;2.22;;;;;;;20.70;53.79;101761.84;5064970;28;20036;-74
2022/07/03 10:51:52;;;;;;;4.85;2.60;;;;;;;20.80;55.13;101756.94;5062011;28;20056;-74
2022/07/03 10:54:24;;;;;;;5.75;2.47;;;;;;;20.80;55.06;101754.28;5057847;28;20066;-74
2022/07/03 10:56:58;;;;;;;4.07;2.30;;;;;;;20.80;56.69;101766.69;5063090;28;20060;-74
2022/07/03 10:59:36;;;;;;;3.30;2.00;;;;;;;20.73;55.64;101753.75;5062237;28;20028;-74
2022/07/03 11:02:20;;;;;;;3.10;2.00;;;;;;;20.67;56.00;101769.09;5065241;28;20464;-74
2022/07/03 11:04:57;;;;;;;3.83;1.90;;;;;;;20.63;55.91;101763.13;5062322;28;20123;-74
2022/07/03 11:07:23;;;;;;;4.22;1.95;;;;;;;20.66;55.12;101759.44;5064669;28;20102;-74
2022/07/03 11:10:10;;;;;;;3.20;1.70;;;;;;;20.70;55.25;101761.84;5062837;28;20387;-74
2022/07/03 11:13:04;;;;;;;2.75;1.95;;;;;;;20.73;55.40;101766.97;5062357;28;20032;-73
2022/07/03 11:15:32;;;;;;;3.38;1.92;;;;;;;20.80;54.75;101761.38;5059699;28;20123;-75
2022/07/03 11:18:23;;;;;;;3.22;1.80;;;;;;;20.89;55.08;101750.28;5062929;28;20090;-75
2022/07/03 11:20:51;;;;;;;2.80;1.63;;;;;;;20.93;55.63;101751.84;5060607;28;20059;-75
2022/07/03 11:23:18;;;;;;;3.03;1.80;;;;;;;20.96;54.65;101751.66;5062115;28;20703;-75
2022/07/03 11:25:44;;;;;;;2.25;1.33;;;;;;;21.01;52.09;101749.59;5058321;28;20021;-74
2022/07/03 11:28:33;;;;;;;2.92;1.27;;;;;;;21.02;54.16;101740.72;5062117;28;20032;-74
2022/07/03 11:31:07;;;;;;;3.63;1.40;;;;;;;21.02;53.34;101745.19;5064085;28;20072;-74
2022/07/03 11:33:53;;;;;;;3.35;1.55;;;;;;;21.02;53.69;101746.00;5059554;28;20041;-74
2022/07/03 11:36:22;;;;;;;4.38;1.70;;;;;;;21.00;53.19;101742.63;5057271;28;20037;-72
2022/07/03 11:38:59;;;;;;;2.90;1.50;;;;;;;21.04;53.32;101743.31;5060904;28;20036;-74
2022/07/03 11:41:27;;;;;;;2.65;1.50;;;;;;;21.05;54.38;101737.91;5062035;28;20044;-75
2022/07/03 11:43:55;;;;;;;2.15;1.20;;;;;;;21.04;53.02;101738.84;5062860;28;20149;-76
2022/07/03 11:46:25;;;;;;;5.70;1.30;;;;;;;21.07;53.36;101743.13;5059448;28;20037;-75
2022/07/03 11:49:16;;;;;;;5.35;1.67;;;;;;;21.16;53.08;101737.31;5059816;28;20037;-75